sensor_id;sensor_type;location;lat;lon;timestamp;pressure;altitude;pressure_sealevel;temperature;humidity
51239;BME280;38154;47.548;18.828;2023-05-01T00:01:26;99002.84;;;9.13;100.00
51239;BME280;38154;47.548;18.828;2023-05-01T00:03:52;99004.66;;;9.17;100.00
51239;BME280;38154;47.548;18.828;2023-05-01T00:06:18;99003.19;;;9.44;100.00
51239;BME280;38154;47.548;18.828;2023-05-01T00:08:44;99008.44;;;9.53;100.00
51239;BME280;38154;47.548;18.828;2023-05-01T00:11:09;99000.53;;;9.41;100.00
51239;BME280;38154;47.548;18.828;2023-05-01T00:13:36;99002.78;;;9.05;100.00
51239;BME280;38154;47.548;18.828;2023-05-01T00:16:11;99004.28;;;8.83;100.00
51239;BME280;38154;47.548;18.828;2023-05-01T00:18:37;98996.25;;;8.65;100.00
51239;BME280;38154;47.548;18.828;2023-05-01T00:21:03;98988.31;;;8.56;100.00
51239;BME280;38154;47.548;18.828;2023-05-01T00:23:29;98994.13;;;8.39;100.00
51239;BME280;38154;47.548;18.828;2023-05-01T00:25:54;98994.06;;;8.33;100.00
51239;BME280;38154;47.548;18.828;2023-05-01T00:28:20;98996.41;;;8.16;100.00
51239;BME280;38154;47.548;18.828;2023-05-01T00:30:46;98992.12;;;8.18;100.00
51239;BME280;38154;47.548;18.828;2023-05-01T00:33:12;98991.94;;;8.07;100.00
51239;BME280;38154;47.548;18.828;2023-05-01T00:35:37;98995.16;;;7.91;100.00
51239;BME280;38154;47.548;18.828;2023-05-01T00:38:03;98993.38;;;7.87;100.00
51239;BME280;38154;47.548;18.828;2023-05-01T00:40:28;99000.34;;;7.88;100.00
51239;BME280;38154;47.548;18.828;2023-05-01T00:42:54;99000.13;;;7.77;100.00
51239;BME280;38154;47.548;18.828;2023-05-01T00:45:20;98995.00;;;7.80;100.00
51239;BME280;38154;47.548;18.828;2023-05-01T00:47:46;99004.47;;;7.76;100.00
51239;BME280;38154;47.548;18.828;2023-05-01T00:50:12;98998.31;;;7.70;100.00
51239;BME280;38154;47.548;18.828;2023-05-01T00:52:38;98999.91;;;7.61;100.00
51239;BME280;38154;47.548;18.828;2023-05-01T00:55:04;99003.25;;;7.54;100.00
51239;BME280;38154;47.548;18.828;2023-05-01T00:57:30;98995.37;;;7.50;100.00
51239;BME280;38154;47.548;18.828;2023-05-01T00:59:56;98998.75;;;7.46;100.00
51239;BME280;38154;47.548;18.828;2023-05-01T01:02:22;98996.84;;;7.35;100.00
51239;BME280;38154;47.548;18.828;2023-05-01T01:04:48;98993.44;;;7.38;100.00
51239;BME280;38154;47.548;18.828;2023-05-01T01:10:10;98988.03;;;7.24;100.00
51239;BME280;38154;47.548;18.828;2023-05-01T01:12:48;98989.44;;;7.08;100.00
51239;BME280;38154;47.548;18.828;2023-05-01T01:15:20;98987.66;;;7.04;100.00
51239;BME280;38154;47.548;18.828;2023-05-01T01:25:49;98993.16;;;6.77;100.00
51239;BME280;38154;47.548;18.828;2023-05-01T01:36:09;98991.34;;;6.73;100.00
51239;BME280;38154;47.548;18.828;2023-05-01T01:38:51;98995.53;;;6.66;100.00
51239;BME280;38154;47.548;18.828;2023-05-01T01:41:19;98989.41;;;6.62;100.00
51239;BME280;38154;47.548;18.828;2023-05-01T01:43:54;98988.78;;;6.74;100.00
51239;BME280;38154;47.548;18.828;2023-05-01T01:46:22;98996.66;;;6.79;100.00
51239;BME280;38154;47.548;18.828;2023-05-01T01:48:48;98980.81;;;6.65;100.00
51239;BME280;38154;47.548;18.828;2023-05-01T01:51:15;98983.34;;;6.62;100.00
51239;BME280;38154;47.548;18.828;2023-05-01T01:53:43;98974.88;;;6.69;100.00
51239;BME280;38154;47.548;18.828;2023-05-01T01:56:10;98984.16;;;6.59;100.00
51239;BME280;38154;47.548;18.828;2023-05-01T01:58:37;98977.16;;;6.54;100.00
51239;BME280;38154;47.548;18.828;2023-05-01T02:01:04;98976.34;;;6.56;100.00
51239;BME280;38154;47.548;18.828;2023-05-01T02:03:30;98984.34;;;6.67;100.00
51239;BME280;38154;47.548;18.828;2023-05-01T02:05:57;98980.13;;;6.72;100.00
51239;BME280;38154;47.548;18.828;2023-05-01T02:08:24;98989.84;;;6.84;100.00
51239;BME280;38154;47.548;18.828;2023-05-01T02:10:51;98993.16;;;6.77;100.00
51239;BME280;38154;47.548;18.828;2023-05-01T02:13:22;98988.88;;;6.77;100.00
51239;BME280;38154;47.548;18.828;2023-05-01T02:15:49;99002.16;;;6.94;100.00
51239;BME280;38154;47.548;18.828;2023-05-01T02:18:15;98997.13;;;7.03;100.00
51239;BME280;38154;47.548;18.828;2023-05-01T02:20:41;98998.94;;;7.08;100.00
51239;BME280;38154;47.548;18.828;2023-05-01T02:23:07;99003.53;;;7.21;100.00
51239;BME280;38154;47.548;18.828;2023-05-01T02:25:33;98998.47;;;7.30;100.00
51239;BME280;38154;47.548;18.828;2023-05-01T02:28:00;99002.06;;;7.37;100.00
51239;BME280;38154;47.548;18.828;2023-05-01T02:30:27;99003.16;;;7.50;100.00
51239;BME280;38154;47.548;18.828;2023-05-01T02:32:52;99000.75;;;7.62;100.00
51239;BME280;38154;47.548;18.828;2023-05-01T02:35:18;99002.81;;;7.82;100.00
51239;BME280;38154;47.548;18.828;2023-05-01T02:37:44;99003.06;;;7.98;100.00
51239;BME280;38154;47.548;18.828;2023-05-01T02:40:10;98995.28;;;7.98;100.00
51239;BME280;38154;47.548;18.828;2023-05-01T02:42:36;98998.84;;;8.05;100.00
51239;BME280;38154;47.548;18.828;2023-05-01T02:45:06;98991.09;;;8.07;100.00
51239;BME280;38154;47.548;18.828;2023-05-01T02:47:38;98991.97;;;8.09;100.00
51239;BME280;38154;47.548;18.828;2023-05-01T02:50:05;98997.25;;;8.13;100.00
51239;BME280;38154;47.548;18.828;2023-05-01T02:52:32;99000.72;;;8.15;100.00
51239;BME280;38154;47.548;18.828;2023-05-01T02:54:58;98996.53;;;8.24;100.00
51239;BME280;38154;47.548;18.828;2023-05-01T02:57:25;99007.03;;;8.31;100.00
51239;BME280;38154;47.548;18.828;2023-05-01T02:59:51;99007.03;;;8.34;100.00
51239;BME280;38154;47.548;18.828;2023-05-01T03:02:16;99007.03;;;8.34;100.00
51239;BME280;38154;47.548;18.828;2023-05-01T03:04:42;99008.00;;;8.38;100.00
51239;BME280;38154;47.548;18.828;2023-05-01T03:07:08;99009.81;;;8.44;100.00
51239;BME280;38154;47.548;18.828;2023-05-01T03:09:34;99015.06;;;8.47;100.00
51239;BME280;38154;47.548;18.828;2023-05-01T03:11:59;99020.34;;;8.51;100.00
51239;BME280;38154;47.548;18.828;2023-05-01T03:14:25;99015.22;;;8.59;100.00
51239;BME280;38154;47.548;18.828;2023-05-01T03:16:53;99008.31;;;8.61;100.00
51239;BME280;38154;47.548;18.828;2023-05-01T03:19:19;99012.78;;;8.70;100.00
51239;BME280;38154;47.548;18.828;2023-05-01T03:21:44;99012.97;;;8.85;100.00
51239;BME280;38154;47.548;18.828;2023-05-01T03:24:10;99019.81;;;8.79;100.00
51239;BME280;38154;47.548;18.828;2023-05-01T03:26:36;99018.84;;;8.72;100.00
51239;BME280;38154;47.548;18.828;2023-05-01T03:29:02;99017.97;;;8.73;100.00
51239;BME280;38154;47.548;18.828;2023-05-01T03:31:28;99018.13;;;8.84;100.00
51239;BME280;38154;47.548;18.828;2023-05-01T03:33:53;99021.59;;;8.84;100.00
51239;BME280;38154;47.548;18.828;2023-05-01T03:36:19;99021.56;;;8.83;100.00
51239;BME280;38154;47.548;18.828;2023-05-01T03:38:46;99018.22;;;8.90;100.00
51239;BME280;38154;47.548;18.828;2023-05-01T03:41:12;99027.78;;;8.93;100.00
51239;BME280;38154;47.548;18.828;2023-05-01T03:43:38;99019.09;;;8.90;100.00
51239;BME280;38154;47.548;18.828;2023-05-01T03:46:03;99022.59;;;8.94;100.00
51239;BME280;38154;47.548;18.828;2023-05-01T03:48:29;99018.28;;;8.98;100.00
51239;BME280;38154;47.548;18.828;2023-05-01T03:50:55;99021.00;;;9.07;100.00
51239;BME280;38154;47.548;18.828;2023-05-01T03:53:22;99013.38;;;9.24;100.00
51239;BME280;38154;47.548;18.828;2023-05-01T03:55:48;99014.31;;;9.29;100.00
51239;BME280;38154;47.548;18.828;2023-05-01T03:58:14;99017.81;;;9.33;100.00
51239;BME280;38154;47.548;18.828;2023-05-01T04:00:39;99015.31;;;9.42;100.00
51239;BME280;38154;47.548;18.828;2023-05-01T04:03:06;99019.69;;;9.46;100.00
51239;BME280;38154;47.548;18.828;2023-05-01T04:05:31;99018.97;;;9.62;100.00
51239;BME280;38154;47.548;18.828;2023-05-01T04:07:57;99015.53;;;9.68;100.00
51239;BME280;38154;47.548;18.828;2023-05-01T04:10:23;99021.69;;;9.78;100.00
51239;BME280;38154;47.548;18.828;2023-05-01T04:12:49;99024.38;;;9.87;100.00
51239;BME280;38154;47.548;18.828;2023-05-01T04:15:15;99027.91;;;9.92;100.00
51239;BME280;38154;47.548;18.828;2023-05-01T04:17:40;99024.47;;;9.99;100.00
51239;BME280;38154;47.548;18.828;2023-05-01T04:20:08;99020.19;;;10.06;100.00
51239;BME280;38154;47.548;18.828;2023-05-01T04:22:34;99017.66;;;10.14;100.00
51239;BME280;38154;47.548;18.828;2023-05-01T04:24:59;99016.09;;;10.40;100.00
51239;BME280;38154;47.548;18.828;2023-05-01T04:27:25;99029.22;;;10.54;100.00
51239;BME280;38154;47.548;18.828;2023-05-01T04:29:51;99025.81;;;10.75;100.00
51239;BME280;38154;47.548;18.828;2023-05-01T04:32:16;99025.06;;;10.97;100.00
51239;BME280;38154;47.548;18.828;2023-05-01T04:34:42;99029.50;;;11.28;100.00
51239;BME280;38154;47.548;18.828;2023-05-01T04:37:10;99027.81;;;11.41;99.47
51239;BME280;38154;47.548;18.828;2023-05-01T04:39:36;99027.81;;;11.52;100.00
51239;BME280;38154;47.548;18.828;2023-05-01T04:42:02;99033.06;;;11.84;95.76
51239;BME280;38154;47.548;18.828;2023-05-01T04:44:28;99024.38;;;12.12;90.19
51239;BME280;38154;47.548;18.828;2023-05-01T04:46:53;99030.47;;;12.23;91.97
51239;BME280;38154;47.548;18.828;2023-05-01T04:49:22;99031.28;;;12.53;86.19
51239;BME280;38154;47.548;18.828;2023-05-01T04:51:48;99033.81;;;12.80;84.17
51239;BME280;38154;47.548;18.828;2023-05-01T04:54:13;99040.69;;;13.05;81.06
51239;BME280;38154;47.548;18.828;2023-05-01T04:56:39;99032.00;;;12.96;83.06
51239;BME280;38154;47.548;18.828;2023-05-01T04:59:05;99035.47;;;13.05;87.70
51239;BME280;38154;47.548;18.828;2023-05-01T05:01:30;99039.59;;;13.49;84.71
51239;BME280;38154;47.548;18.828;2023-05-01T05:03:56;99044.00;;;13.44;84.62
51239;BME280;38154;47.548;18.828;2023-05-01T05:06:22;99041.31;;;13.59;83.88
51239;BME280;38154;47.548;18.828;2023-05-01T05:08:47;99035.16;;;13.62;82.39
51239;BME280;38154;47.548;18.828;2023-05-01T05:11:16;99041.22;;;13.68;86.48
51239;BME280;38154;47.548;18.828;2023-05-01T05:13:42;99034.28;;;13.64;86.19
51239;BME280;38154;47.548;18.828;2023-05-01T05:16:08;99036.91;;;13.63;83.91
51239;BME280;38154;47.548;18.828;2023-05-01T05:18:33;99040.41;;;13.60;84.04
51239;BME280;38154;47.548;18.828;2023-05-01T05:21:02;99046.38;;;13.81;82.61
51239;BME280;38154;47.548;18.828;2023-05-01T05:23:27;99046.44;;;13.75;83.31
51239;BME280;38154;47.548;18.828;2023-05-01T05:25:53;99048.97;;;13.85;85.95
51239;BME280;38154;47.548;18.828;2023-05-01T05:28:19;99043.47;;;14.18;83.56
51239;BME280;38154;47.548;18.828;2023-05-01T05:30:44;99047.66;;;14.37;82.65
51239;BME280;38154;47.548;18.828;2023-05-01T05:33:11;99052.72;;;14.59;75.65
51239;BME280;38154;47.548;18.828;2023-05-01T05:35:37;99050.94;;;14.58;72.57
51239;BME280;38154;47.548;18.828;2023-05-01T05:38:03;99058.25;;;14.29;70.60
51239;BME280;38154;47.548;18.828;2023-05-01T05:40:28;99065.28;;;14.23;68.31
51239;BME280;38154;47.548;18.828;2023-05-01T05:42:54;99063.44;;;14.33;67.88
51239;BME280;38154;47.548;18.828;2023-05-01T05:45:21;99056.78;;;14.86;66.34
51239;BME280;38154;47.548;18.828;2023-05-01T05:47:47;99067.56;;;15.36;63.57
51239;BME280;38154;47.548;18.828;2023-05-01T05:50:13;99070.25;;;15.93;59.15
51239;BME280;38154;47.548;18.828;2023-05-01T05:52:39;99066.25;;;16.24;56.91
51239;BME280;38154;47.548;18.828;2023-05-01T05:55:05;99065.53;;;16.16;54.51
51239;BME280;38154;47.548;18.828;2023-05-01T05:57:30;99066.19;;;16.28;55.33
51239;BME280;38154;47.548;18.828;2023-05-01T05:59:56;99056.31;;;16.41;54.22
51239;BME280;38154;47.548;18.828;2023-05-01T06:02:22;99056.56;;;16.27;50.96
51239;BME280;38154;47.548;18.828;2023-05-01T06:04:47;99063.78;;;16.66;50.27
51239;BME280;38154;47.548;18.828;2023-05-01T06:07:13;99068.56;;;17.34;48.45
51239;BME280;38154;47.548;18.828;2023-05-01T06:09:39;99067.47;;;18.88;44.00
51239;BME280;38154;47.548;18.828;2023-05-01T06:12:04;99069.31;;;20.31;43.04
51239;BME280;38154;47.548;18.828;2023-05-01T06:14:30;99072.00;;;20.56;39.86
51239;BME280;38154;47.548;18.828;2023-05-01T06:16:56;99070.87;;;19.83;39.54
51239;BME280;38154;47.548;18.828;2023-05-01T06:19:21;99077.53;;;19.96;38.85
51239;BME280;38154;47.548;18.828;2023-05-01T06:21:47;99079.78;;;20.61;38.72
51239;BME280;38154;47.548;18.828;2023-05-01T06:24:12;99085.72;;;21.18;36.89
51239;BME280;38154;47.548;18.828;2023-05-01T06:26:40;99089.66;;;22.00;33.58
51239;BME280;38154;47.548;18.828;2023-05-01T06:29:05;99094.37;;;21.94;32.17
51239;BME280;38154;47.548;18.828;2023-05-01T06:31:31;99093.09;;;22.24;30.59
51239;BME280;38154;47.548;18.828;2023-05-01T06:33:57;99084.94;;;22.72;30.56
51239;BME280;38154;47.548;18.828;2023-05-01T06:36:22;99109.34;;;23.61;28.47
51239;BME280;38154;47.548;18.828;2023-05-01T06:38:48;99092.81;;;23.92;28.16
51239;BME280;38154;47.548;18.828;2023-05-01T06:41:14;99109.53;;;25.35;25.75
51239;BME280;38154;47.548;18.828;2023-05-01T06:43:40;99107.25;;;26.71;23.26
51239;BME280;38154;47.548;18.828;2023-05-01T06:46:06;99098.50;;;26.83;22.92
51239;BME280;38154;47.548;18.828;2023-05-01T06:48:32;99101.97;;;26.39;23.37
51239;BME280;38154;47.548;18.828;2023-05-01T06:50:57;99099.09;;;25.80;25.01
51239;BME280;38154;47.548;18.828;2023-05-01T06:53:23;99104.16;;;27.08;23.48
51239;BME280;38154;47.548;18.828;2023-05-01T06:55:48;99110.28;;;26.35;22.16
51239;BME280;38154;47.548;18.828;2023-05-01T06:58:14;99105.06;;;25.03;24.46
51239;BME280;38154;47.548;18.828;2023-05-01T07:00:40;99109.41;;;25.70;23.97
51239;BME280;38154;47.548;18.828;2023-05-01T07:03:05;99108.81;;;25.49;24.20
51239;BME280;38154;47.548;18.828;2023-05-01T07:05:31;99115.09;;;24.97;25.34
51239;BME280;38154;47.548;18.828;2023-05-01T07:07:57;99116.97;;;25.13;24.45
51239;BME280;38154;47.548;18.828;2023-05-01T07:10:22;99106.53;;;25.08;25.78
51239;BME280;38154;47.548;18.828;2023-05-01T07:12:48;99110.75;;;25.79;24.07
51239;BME280;38154;47.548;18.828;2023-05-01T07:15:14;99110.38;;;25.85;24.04
51239;BME280;38154;47.548;18.828;2023-05-01T07:17:41;99125.66;;;26.31;23.51
51239;BME280;38154;47.548;18.828;2023-05-01T07:20:06;99116.03;;;27.18;23.08
51239;BME280;38154;47.548;18.828;2023-05-01T07:22:32;99115.00;;;27.49;23.79
51239;BME280;38154;47.548;18.828;2023-05-01T07:24:58;99130.28;;;28.72;22.46
51239;BME280;38154;47.548;18.828;2023-05-01T07:27:25;99121.41;;;28.17;22.46
51239;BME280;38154;47.548;18.828;2023-05-01T07:29:52;99117.44;;;30.04;20.95
51239;BME280;38154;47.548;18.828;2023-05-01T07:32:17;99120.00;;;30.30;21.54
51239;BME280;38154;47.548;18.828;2023-05-01T07:34:43;99124.78;;;31.33;19.84
51239;BME280;38154;47.548;18.828;2023-05-01T07:37:09;99113.62;;;29.83;21.25
51239;BME280;38154;47.548;18.828;2023-05-01T07:39:34;99120.44;;;28.98;21.81
51239;BME280;38154;47.548;18.828;2023-05-01T07:42:00;99124.31;;;29.07;21.40
51239;BME280;38154;47.548;18.828;2023-05-01T07:44:26;99115.06;;;29.63;21.43
51239;BME280;38154;47.548;18.828;2023-05-01T07:46:51;99116.84;;;30.49;22.32
51239;BME280;38154;47.548;18.828;2023-05-01T07:49:17;99119.47;;;30.38;20.67
51239;BME280;38154;47.548;18.828;2023-05-01T07:51:43;99115.03;;;29.88;22.26
51239;BME280;38154;47.548;18.828;2023-05-01T07:54:09;99121.00;;;30.29;21.08
51239;BME280;38154;47.548;18.828;2023-05-01T07:56:35;99121.72;;;29.70;21.47
51239;BME280;38154;47.548;18.828;2023-05-01T07:59:01;99128.06;;;29.56;21.18
51239;BME280;38154;47.548;18.828;2023-05-01T08:01:27;99125.41;;;30.54;20.56
51239;BME280;38154;47.548;18.828;2023-05-01T08:03:52;99125.22;;;30.68;20.53
51239;BME280;38154;47.548;18.828;2023-05-01T08:06:18;99123.19;;;30.24;20.61
51239;BME280;38154;47.548;18.828;2023-05-01T08:08:44;99119.38;;;30.02;20.87
51239;BME280;38154;47.548;18.828;2023-05-01T08:11:10;99117.44;;;29.80;21.03
51239;BME280;38154;47.548;18.828;2023-05-01T08:13:36;99117.31;;;29.56;22.02
51239;BME280;38154;47.548;18.828;2023-05-01T08:16:01;99122.47;;;29.59;21.82
51239;BME280;38154;47.548;18.828;2023-05-01T08:18:28;99118.84;;;29.60;21.76
51239;BME280;38154;47.548;18.828;2023-05-01T08:20:53;99124.75;;;29.52;21.80
51239;BME280;38154;47.548;18.828;2023-05-01T08:23:19;99127.97;;;28.93;22.00
51239;BME280;38154;47.548;18.828;2023-05-01T08:25:45;99129.69;;;29.33;21.78
51239;BME280;38154;47.548;18.828;2023-05-01T08:28:16;99126.31;;;31.01;20.34
51239;BME280;38154;47.548;18.828;2023-05-01T08:30:42;99118.38;;;29.79;21.87
51239;BME280;38154;47.548;18.828;2023-05-01T08:33:08;99124.00;;;29.63;22.26
51239;BME280;38154;47.548;18.828;2023-05-01T08:35:34;99114.00;;;29.39;22.39
51239;BME280;38154;47.548;18.828;2023-05-01T08:38:00;99118.09;;;29.58;22.74
51239;BME280;38154;47.548;18.828;2023-05-01T08:40:26;99117.66;;;30.01;22.23
51239;BME280;38154;47.548;18.828;2023-05-01T08:42:51;99113.28;;;30.84;21.87
51239;BME280;38154;47.548;18.828;2023-05-01T08:45:19;99118.25;;;30.66;22.24
51239;BME280;38154;47.548;18.828;2023-05-01T08:47:45;99121.84;;;30.29;21.58
51239;BME280;38154;47.548;18.828;2023-05-01T08:50:12;99122.16;;;30.38;21.22
51239;BME280;38154;47.548;18.828;2023-05-01T08:52:41;99127.53;;;31.08;20.76
51239;BME280;38154;47.548;18.828;2023-05-01T08:55:11;99119.09;;;30.66;20.43
51239;BME280;38154;47.548;18.828;2023-05-01T08:57:37;99122.19;;;30.01;21.30
51239;BME280;38154;47.548;18.828;2023-05-01T09:00:04;99114.97;;;28.74;22.37
51239;BME280;38154;47.548;18.828;2023-05-01T09:02:30;99120.84;;;27.70;22.90
51239;BME280;38154;47.548;18.828;2023-05-01T09:04:59;99119.34;;;27.93;23.62
51239;BME280;38154;47.548;18.828;2023-05-01T09:07:26;99117.25;;;29.06;21.95
51239;BME280;38154;47.548;18.828;2023-05-01T09:09:51;99116.44;;;29.81;21.96
51239;BME280;38154;47.548;18.828;2023-05-01T09:12:24;99115.00;;;29.38;20.76
51239;BME280;38154;47.548;18.828;2023-05-01T09:14:51;99112.31;;;29.51;20.78
51239;BME280;38154;47.548;18.828;2023-05-01T09:17:16;99110.44;;;29.65;20.84
51239;BME280;38154;47.548;18.828;2023-05-01T09:19:43;99112.09;;;29.03;23.31
51239;BME280;38154;47.548;18.828;2023-05-01T09:22:08;99107.75;;;28.75;21.77
51239;BME280;38154;47.548;18.828;2023-05-01T09:24:34;99097.25;;;29.36;24.02
51239;BME280;38154;47.548;18.828;2023-05-01T09:27:00;99113.44;;;28.96;22.30
51239;BME280;38154;47.548;18.828;2023-05-01T09:29:36;99107.25;;;29.47;21.44
51239;BME280;38154;47.548;18.828;2023-05-01T09:34:43;99105.88;;;30.99;20.84
51239;BME280;38154;47.548;18.828;2023-05-01T09:37:12;99110.50;;;30.61;20.56
51239;BME280;38154;47.548;18.828;2023-05-01T09:39:48;99098.50;;;29.56;21.32
51239;BME280;38154;47.548;18.828;2023-05-01T09:42:21;99112.44;;;29.74;20.87
51239;BME280;38154;47.548;18.828;2023-05-01T09:44:48;99093.25;;;29.54;21.74
51239;BME280;38154;47.548;18.828;2023-05-01T09:47:20;99089.06;;;30.24;20.45
51239;BME280;38154;47.548;18.828;2023-05-01T09:49:49;99092.81;;;30.81;20.72
51239;BME280;38154;47.548;18.828;2023-05-01T09:52:14;99096.50;;;30.45;21.77
51239;BME280;38154;47.548;18.828;2023-05-01T09:54:41;99096.44;;;30.33;21.69
51239;BME280;38154;47.548;18.828;2023-05-01T09:57:07;99081.56;;;29.92;21.37
51239;BME280;38154;47.548;18.828;2023-05-01T09:59:33;99085.09;;;30.65;20.87
51239;BME280;38154;47.548;18.828;2023-05-01T10:01:59;99085.41;;;30.01;21.71
51239;BME280;38154;47.548;18.828;2023-05-01T10:04:31;99091.66;;;29.13;21.87
51239;BME280;38154;47.548;18.828;2023-05-01T10:07:14;99085.44;;;28.34;23.43
51239;BME280;38154;47.548;18.828;2023-05-01T10:09:39;99081.06;;;28.19;24.78
51239;BME280;38154;47.548;18.828;2023-05-01T10:12:06;99062.97;;;29.39;22.82
51239;BME280;38154;47.548;18.828;2023-05-01T10:14:32;99071.69;;;28.79;24.19
51239;BME280;38154;47.548;18.828;2023-05-01T10:17:15;99068.78;;;29.08;22.70
51239;BME280;38154;47.548;18.828;2023-05-01T10:19:41;99068.06;;;29.18;23.11
51239;BME280;38154;47.548;18.828;2023-05-01T10:22:07;99072.97;;;28.99;22.18
51239;BME280;38154;47.548;18.828;2023-05-01T10:24:33;99064.41;;;28.81;23.88
51239;BME280;38154;47.548;18.828;2023-05-01T10:26:58;99058.81;;;28.97;22.49
51239;BME280;38154;47.548;18.828;2023-05-01T10:29:25;99054.44;;;27.88;25.59
51239;BME280;38154;47.548;18.828;2023-05-01T10:31:52;99058.88;;;28.57;23.52
51239;BME280;38154;47.548;18.828;2023-05-01T10:34:18;99063.75;;;27.97;24.14
51239;BME280;38154;47.548;18.828;2023-05-01T10:36:46;99058.03;;;28.56;23.39
51239;BME280;38154;47.548;18.828;2023-05-01T10:39:32;99049.97;;;27.47;24.84
51239;BME280;38154;47.548;18.828;2023-05-01T10:41:59;99038.88;;;26.96;25.01
51239;BME280;38154;47.548;18.828;2023-05-01T10:44:26;99047.84;;;26.80;24.78
51239;BME280;38154;47.548;18.828;2023-05-01T10:46:52;99041.34;;;26.99;25.99
51239;BME280;38154;47.548;18.828;2023-05-01T10:49:18;99052.22;;;27.53;24.16
51239;BME280;38154;47.548;18.828;2023-05-01T10:51:57;99045.09;;;27.25;24.33
51239;BME280;38154;47.548;18.828;2023-05-01T10:54:26;99044.06;;;27.42;24.26
51239;BME280;38154;47.548;18.828;2023-05-01T10:56:52;99054.34;;;28.44;22.98
51239;BME280;38154;47.548;18.828;2023-05-01T10:59:18;99041.94;;;28.16;24.64
51239;BME280;38154;47.548;18.828;2023-05-01T11:01:45;99048.03;;;28.18;24.21
51239;BME280;38154;47.548;18.828;2023-05-01T11:12:08;99033.84;;;28.43;24.78
51239;BME280;38154;47.548;18.828;2023-05-01T11:20:01;99026.25;;;26.98;25.98
51239;BME280;38154;47.548;18.828;2023-05-01T11:22:28;99020.31;;;26.64;25.94
51239;BME280;38154;47.548;18.828;2023-05-01T11:24:54;99025.31;;;26.40;25.53
51239;BME280;38154;47.548;18.828;2023-05-01T11:27:20;99019.78;;;26.57;26.70
51239;BME280;38154;47.548;18.828;2023-05-01T11:29:46;99019.84;;;27.15;24.82
51239;BME280;38154;47.548;18.828;2023-05-01T11:32:14;99019.03;;;27.56;25.04
51239;BME280;38154;47.548;18.828;2023-05-01T11:34:40;99015.72;;;27.09;26.77
51239;BME280;38154;47.548;18.828;2023-05-01T11:37:07;98999.28;;;27.44;24.80
51239;BME280;38154;47.548;18.828;2023-05-01T11:39:32;99005.34;;;26.45;25.27
51239;BME280;38154;47.548;18.828;2023-05-01T11:42:05;98991.03;;;26.46;26.11
51239;BME280;38154;47.548;18.828;2023-05-01T11:44:31;98992.66;;;26.49;26.96
51239;BME280;38154;47.548;18.828;2023-05-01T11:46:57;98993.47;;;26.65;25.72
51239;BME280;38154;47.548;18.828;2023-05-01T11:49:26;98989.06;;;26.64;26.65
51239;BME280;38154;47.548;18.828;2023-05-01T11:51:56;98994.13;;;27.27;25.62
51239;BME280;38154;47.548;18.828;2023-05-01T11:54:22;98991.22;;;26.58;25.66
51239;BME280;38154;47.548;18.828;2023-05-01T11:56:56;98989.16;;;25.24;26.68
51239;BME280;38154;47.548;18.828;2023-05-01T11:59:22;98986.28;;;24.10;29.78
51239;BME280;38154;47.548;18.828;2023-05-01T12:01:47;98982.34;;;23.99;29.84
51239;BME280;38154;47.548;18.828;2023-05-01T12:04:22;98985.06;;;23.80;28.99
51239;BME280;38154;47.548;18.828;2023-05-01T12:06:47;98983.25;;;23.81;29.05
51239;BME280;38154;47.548;18.828;2023-05-01T12:09:20;98985.47;;;23.53;30.11
51239;BME280;38154;47.548;18.828;2023-05-01T12:11:48;98976.25;;;23.61;30.39
51239;BME280;38154;47.548;18.828;2023-05-01T12:14:13;98965.13;;;23.89;30.64
51239;BME280;38154;47.548;18.828;2023-05-01T12:16:40;98978.69;;;24.02;28.55
51239;BME280;38154;47.548;18.828;2023-05-01T12:19:06;98968.44;;;23.75;29.67
51239;BME280;38154;47.548;18.828;2023-05-01T12:21:32;98972.97;;;23.37;29.61
51239;BME280;38154;47.548;18.828;2023-05-01T12:24:07;98971.69;;;23.26;30.24
51239;BME280;38154;47.548;18.828;2023-05-01T12:26:34;98974.63;;;23.39;28.82
51239;BME280;38154;47.548;18.828;2023-05-01T12:29:03;98972.53;;;23.46;28.82
51239;BME280;38154;47.548;18.828;2023-05-01T12:31:29;98957.53;;;23.07;30.74
51239;BME280;38154;47.548;18.828;2023-05-01T12:33:56;98963.50;;;23.12;30.13
51239;BME280;38154;47.548;18.828;2023-05-01T12:36:23;98956.41;;;22.92;30.37
51239;BME280;38154;47.548;18.828;2023-05-01T12:41:40;98947.06;;;22.44;30.85
51239;BME280;38154;47.548;18.828;2023-05-01T12:44:19;98933.72;;;22.24;31.67
51239;BME280;38154;47.548;18.828;2023-05-01T12:46:59;98935.84;;;22.37;31.77
51239;BME280;38154;47.548;18.828;2023-05-01T12:49:26;98938.41;;;22.59;31.09
51239;BME280;38154;47.548;18.828;2023-05-01T12:51:52;98933.03;;;22.60;31.64
51239;BME280;38154;47.548;18.828;2023-05-01T12:54:19;98928.13;;;22.51;31.58
51239;BME280;38154;47.548;18.828;2023-05-01T12:56:45;98927.41;;;22.48;31.52
51239;BME280;38154;47.548;18.828;2023-05-01T12:59:20;98924.38;;;22.16;30.81
51239;BME280;38154;47.548;18.828;2023-05-01T13:01:47;98915.34;;;21.79;32.31
51239;BME280;38154;47.548;18.828;2023-05-01T13:04:20;98920.91;;;21.93;32.17
51239;BME280;38154;47.548;18.828;2023-05-01T13:06:46;98924.94;;;21.81;31.92
51239;BME280;38154;47.548;18.828;2023-05-01T13:09:11;98917.63;;;21.66;31.90
51239;BME280;38154;47.548;18.828;2023-05-01T13:11:39;98915.09;;;21.19;32.77
51239;BME280;38154;47.548;18.828;2023-05-01T13:14:06;98907.94;;;21.21;31.72
51239;BME280;38154;47.548;18.828;2023-05-01T13:16:33;98896.81;;;21.33;35.32
51239;BME280;38154;47.548;18.828;2023-05-01T13:18:59;98894.34;;;21.73;34.21
51239;BME280;38154;47.548;18.828;2023-05-01T13:21:25;98897.59;;;22.00;32.09
51239;BME280;38154;47.548;18.828;2023-05-01T13:23:52;98892.97;;;21.84;32.48
51239;BME280;38154;47.548;18.828;2023-05-01T13:26:23;98893.56;;;21.71;32.47